Loyal, WI

11:31 AM CDT on September 19, 2014 (GMT -0500)
Central Wisconsin | Change Station
CLOSE
Current Station
Airport
Location: Mosinee,
Elevation: 1276 ft
Nearby Weather Stations

Elev 1276 ft 44.78 °N, 89.67 °W | Updated 46 minutes ago

Clear
Clear
57 °F
Feels Like 57 °F
N
15
Wind Variable Wind from South

Today
High -- | Low -- °F
--% Chance of Precip.
Yesterday
High -- | Low -- °F
Precip. -- in
6:45 AM 7:05 PM
Waning Crescent, 18% visible
Pressure 30.04 in
Visibility 10.0 miles
Clouds Scattered Clouds 800 ft
Dew Point 54 °F
Humidity 88%
Rainfall 0.00 in
Snow Depth Not available.
UV 4 out of 12
Pollen 4.60 out of 12
Air Quality Not available.
Flu Activity Not available.
METAR KCWA 191545Z 19013KT 10SM SCT008 14/12 A3004

More Conditions Fewer Conditions

Pressure 30.04 in
Visibility 10.0 miles
Clouds Scattered Clouds 800 ft
Dew Point 54 °F
Humidity 88%
Rainfall 0.00 in
Snow Depth Not available.
UV 4 out of 12
Pollen 4.60 out of 12
Air Quality Not available.
Flu Activity Not available.
METAR KCWA 191545Z 19013KT 10SM SCT008 14/12 A3004

More Conditions Fewer Conditions

10-Day Weather Forecast

Almanac

Astronomy

Sep. 19, 2014 Rise Set
Actual Time 6:45 AM CDT 7:05 PM CDT
Civil Twilight 6:16 AM CDT 7:34 PM CDT
Nautical Twilight 5:41 AM CDT 8:08 PM CDT
Astronomical Twilight 5:06 AM CDT 8:43 PM CDT
Moon 2:22 AM CDT 4:41 PM CDT
Length of Visible Light 13h 17m
Length of Day
12h 19m
Tomorrow will be 3m 4s shorter.
Waning Crescent, 18% of the Moon is Illuminated
Today
Waning Crescent
Sep 24
New
Oct 1
First Quarter
Oct 8
Full
Oct 15
Last Quarter

Today's Extremes

State Highs State Lows

Community

WunderPhotos

Upload Photos

1,754,648 photos uploaded!

WunderBlogs® & News

By Dr. Jeff Masters
Director of Meteorology, Weather Underground
By Kari Strenfel
Meteorologist, Weather Underground
By Christopher C. Burt
Weather Historian, Weather Underground
September 19, 2014
September 19, 2014
September 19, 2014

Nearby

Snow Depth

Station Depth Elevation
No new snow has been reported.

Earthquake Activity

City Distance Mag. Time & Date
No recent earthquake activity has been reported nearby.
Minimum magnitude displayed is 2.5.

Coastal Water Temperatures

Place Temperature
No Stations Reporting

Nearby Weather Stations